Orbital elements of LARES-2
| Launched | 12 July 2022 |
| Flight ended | – |
| Launch site | Europe's Spaceport, Kourou, French Guiana |
| Owner | Italy |
| NORAD ID | 53105 |
| Date fetched |
Epoch osculation |
Inc. [°] |
Ecc. | RA asc node [hr] |
Arg Peri. [°] |
Mean anom [°] |
Mean motion [rev/day] |
Abs. mag |
| Date fetched |
Epoch osculation |
Inc. [°] |
Ecc. | RA asc node [hr] |
Arg Peri. [°] |
Mean anom [°] |
Mean motion [rev/day] |
Abs. mag |
| 2026 May 01 17:56 | 2026 Apr 28 02:00:12 | 70.1719 | 0.00054 | 21.5009 | 345.8140 | 14.2394 | 6.38965 | – |
| 2026 Apr 30 17:56 | 2026 Apr 28 02:00:12 | 70.1719 | 0.00054 | 21.5009 | 345.8140 | 14.2394 | 6.38965 | – |
| 2026 Apr 29 17:57 | 2026 Apr 28 02:00:12 | 70.1719 | 0.00054 | 21.5009 | 345.8140 | 14.2394 | 6.38965 | – |
| 2026 Apr 28 17:56 | 2026 Apr 28 02:00:12 | 70.1719 | 0.00054 | 21.5009 | 345.8140 | 14.2394 | 6.38965 | – |
| 2026 Apr 27 17:58 | 2026 Apr 24 22:52:30 | 70.1721 | 0.00054 | 21.5724 | 346.5295 | 14.2394 | 6.38965 | – |
| 2026 Apr 26 17:58 | 2026 Apr 24 22:52:30 | 70.1721 | 0.00054 | 21.5724 | 346.5295 | 14.2394 | 6.38965 | – |
| 2026 Apr 25 17:58 | 2026 Apr 24 22:52:30 | 70.1721 | 0.00054 | 21.5724 | 346.5295 | 14.2394 | 6.38965 | – |
| 2026 Apr 24 17:59 | 2026 Apr 21 00:57:52 | 70.1723 | 0.00051 | 21.6619 | 349.2054 | 14.2394 | 6.38965 | – |
| 2026 Apr 23 17:57 | 2026 Apr 21 00:57:52 | 70.1723 | 0.00051 | 21.6619 | 349.2054 | 14.2394 | 6.38965 | – |
| 2026 Apr 22 17:57 | 2026 Apr 21 00:57:52 | 70.1723 | 0.00051 | 21.6619 | 349.2054 | 14.2394 | 6.38965 | – |
| 2026 Apr 21 17:57 | 2026 Apr 15 05:58:36 | 70.1725 | 0.00053 | 21.7943 | 350.5768 | 14.2394 | 6.38965 | – |
| 2026 Apr 20 17:57 | 2026 Apr 15 05:58:36 | 70.1725 | 0.00053 | 21.7943 | 350.5768 | 14.2394 | 6.38965 | – |
| 2026 Apr 19 17:58 | 2026 Apr 15 05:58:36 | 70.1725 | 0.00053 | 21.7943 | 350.5768 | 14.2394 | 6.38965 | – |
| 2026 Apr 18 17:56 | 2026 Apr 15 05:58:36 | 70.1725 | 0.00053 | 21.7943 | 350.5768 | 14.2394 | 6.38965 | – |
| 2026 Apr 16 17:57 | 2026 Apr 15 05:58:36 | 70.1725 | 0.00053 | 21.7943 | 350.5768 | 14.2394 | 6.38965 | – |
| 2026 Apr 14 17:57 | 2026 Apr 07 13:54:43 | 70.1733 | 0.00053 | 21.9696 | 350.4007 | 14.2394 | 6.38965 | – |
| 2026 Apr 13 17:57 | 2026 Apr 07 13:54:43 | 70.1733 | 0.00053 | 21.9696 | 350.4007 | 14.2394 | 6.38965 | – |
| 2026 Apr 12 17:57 | 2026 Apr 07 13:54:43 | 70.1733 | 0.00053 | 21.9696 | 350.4007 | 14.2394 | 6.38965 | – |
| 2026 Apr 11 17:57 | 2026 Apr 07 13:54:43 | 70.1733 | 0.00053 | 21.9696 | 350.4007 | 14.2394 | 6.38965 | – |
| 2026 Apr 10 17:58 | 2026 Apr 07 13:54:43 | 70.1733 | 0.00053 | 21.9696 | 350.4007 | 14.2394 | 6.38965 | – |
| 2026 Apr 09 18:01 | 2026 Apr 07 13:54:43 | 70.1733 | 0.00053 | 21.9696 | 350.4007 | 14.2394 | 6.38965 | – |
| 2026 Apr 08 17:57 | 2026 Apr 07 13:54:43 | 70.1733 | 0.00053 | 21.9696 | 350.4007 | 14.2394 | 6.38965 | – |
| 2026 Apr 07 17:57 | 2026 Mar 31 05:21:37 | 70.1721 | 0.00060 | 22.1378 | 3.9036 | 14.2394 | 6.38965 | – |
| 2026 Apr 06 17:57 | 2026 Mar 31 05:21:37 | 70.1721 | 0.00060 | 22.1378 | 3.9036 | 14.2394 | 6.38965 | – |
| 2026 Apr 05 17:56 | 2026 Mar 31 05:21:37 | 70.1721 | 0.00060 | 22.1378 | 3.9036 | 14.2394 | 6.38965 | – |
| 2026 Apr 04 17:57 | 2026 Mar 31 05:21:37 | 70.1721 | 0.00060 | 22.1378 | 3.9036 | 14.2394 | 6.38965 | – |